sensor_id;sensor_type;location;lat;lon;timestamp;pressure;altitude;pressure_sealevel;temperature;humidity
1694;BME280;71975;47.068;15.408;2024-02-23T12:41:04;95789.47;;;11.49;82.65
1694;BME280;71975;47.068;15.408;2024-02-23T12:46:07;95778.63;;;11.49;80.29
1694;BME280;71975;47.068;15.408;2024-02-23T12:51:10;95765.97;;;11.46;81.32
1694;BME280;71975;47.068;15.408;2024-02-23T12:56:15;95756.47;;;11.23;81.57
1694;BME280;71975;47.068;15.408;2024-02-23T13:01:19;95755.88;;;11.28;80.49
1694;BME280;71975;47.068;15.408;2024-02-23T13:06:22;95751.69;;;11.55;79.39
1694;BME280;71975;47.068;15.408;2024-02-23T13:11:27;95743.88;;;11.48;79.77
1694;BME280;71975;47.068;15.408;2024-02-23T13:16:30;95735.56;;;11.51;79.78
1694;BME280;71975;47.068;15.408;2024-02-23T13:21:33;95743.38;;;11.22;83.49
1694;BME280;71975;47.068;15.408;2024-02-23T13:26:37;95728.00;;;11.01;85.00
1694;BME280;71975;47.068;15.408;2024-02-23T13:31:40;95728.59;;;11.05;84.54
1694;BME280;71975;47.068;15.408;2024-02-23T13:36:43;95719.56;;;10.99;84.26
1694;BME280;71975;47.068;15.408;2024-02-23T13:41:47;95706.63;;;11.03;83.93
1694;BME280;71975;47.068;15.408;2024-02-23T13:46:50;95694.28;;;10.93;84.77
1694;BME280;71975;47.068;15.408;2024-02-23T13:51:53;95686.63;;;10.91;85.39
1694;BME280;71975;47.068;15.408;2024-02-23T13:56:58;95683.03;;;11.03;84.60
1694;BME280;71975;47.068;15.408;2024-02-23T14:02:01;95672.06;;;11.07;86.42
1694;BME280;71975;47.068;15.408;2024-02-23T14:07:04;95660.03;;;10.99;89.04
1694;BME280;71975;47.068;15.408;2024-02-23T14:12:09;95663.63;;;11.05;89.02
1694;BME280;71975;47.068;15.408;2024-02-23T14:17:12;95658.81;;;11.09;88.80
1694;BME280;71975;47.068;15.408;2024-02-23T14:22:15;95666.78;;;11.03;89.97
1694;BME280;71975;47.068;15.408;2024-02-23T14:27:20;95661.97;;;10.98;91.92
1694;BME280;71975;47.068;15.408;2024-02-23T14:32:23;95672.78;;;10.98;91.84
1694;BME280;71975;47.068;15.408;2024-02-23T14:37:26;95672.63;;;10.93;92.68
1694;BME280;71975;47.068;15.408;2024-02-23T14:42:30;95656.97;;;10.88;92.57
1694;BME280;71975;47.068;15.408;2024-02-23T14:47:33;95638.66;;;11.01;90.88
1694;BME280;71975;47.068;15.408;2024-02-23T14:52:46;95634.13;;;10.89;92.10
1694;BME280;71975;47.068;15.408;2024-02-23T14:57:51;95626.63;;;11.02;91.92
1694;BME280;71975;47.068;15.408;2024-02-23T15:02:54;95623.59;;;11.00;90.13
1694;BME280;71975;47.068;15.408;2024-02-23T15:07:57;95624.38;;;10.91;89.65
1694;BME280;71975;47.068;15.408;2024-02-23T15:13:01;95612.78;;;11.00;88.33
1694;BME280;71975;47.068;15.408;2024-02-23T15:18:04;95611.25;;;10.81;89.11
1694;BME280;71975;47.068;15.408;2024-02-23T15:23:07;95595.19;;;10.95;87.65
1694;BME280;71975;47.068;15.408;2024-02-23T15:28:12;95608.72;;;10.86;87.83
1694;BME280;71975;47.068;15.408;2024-02-23T15:33:15;95602.25;;;10.93;87.20
1694;BME280;71975;47.068;15.408;2024-02-23T15:38:18;95600.59;;;10.77;88.74
1694;BME280;71975;47.068;15.408;2024-02-23T15:43:23;95588.56;;;10.69;90.09
1694;BME280;71975;47.068;15.408;2024-02-23T15:48:26;95585.25;;;10.65;90.05
1694;BME280;71975;47.068;15.408;2024-02-23T15:53:29;95583.00;;;10.73;90.09
1694;BME280;71975;47.068;15.408;2024-02-23T15:58:33;95572.78;;;10.77;89.90
1694;BME280;71975;47.068;15.408;2024-02-23T16:03:36;95567.50;;;10.64;90.02
1694;BME280;71975;47.068;15.408;2024-02-23T16:08:40;95576.56;;;10.70;88.86
1694;BME280;71975;47.068;15.408;2024-02-23T16:13:46;95565.72;;;10.70;88.35
1694;BME280;71975;47.068;15.408;2024-02-23T16:18:49;95561.03;;;10.61;90.08
1694;BME280;71975;47.068;15.408;2024-02-23T16:23:52;95562.09;;;10.73;89.41
1694;BME280;71975;47.068;15.408;2024-02-23T16:28:56;95558.34;;;10.71;89.42
1694;BME280;71975;47.068;15.408;2024-02-23T16:34:00;95562.13;;;10.82;88.20
1694;BME280;71975;47.068;15.408;2024-02-23T16:39:03;95561.66;;;10.75;88.77
1694;BME280;71975;47.068;15.408;2024-02-23T16:44:10;95538.06;;;10.75;88.16
1694;BME280;71975;47.068;15.408;2024-02-23T16:49:15;95534.31;;;10.73;88.73
1694;BME280;71975;47.068;15.408;2024-02-23T16:54:18;95523.34;;;10.58;89.99
1694;BME280;71975;47.068;15.408;2024-02-23T16:59:24;95514.75;;;10.59;90.03
1694;BME280;71975;47.068;15.408;2024-02-23T17:04:27;95501.53;;;10.61;90.05
1694;BME280;71975;47.068;15.408;2024-02-23T17:09:30;95504.09;;;10.56;90.50
1694;BME280;71975;47.068;15.408;2024-02-23T17:14:34;95506.34;;;10.57;90.44
1694;BME280;71975;47.068;15.408;2024-02-23T17:19:37;95503.06;;;10.53;90.45
1694;BME280;71975;47.068;15.408;2024-02-23T17:24:42;95510.56;;;10.68;88.74
1694;BME280;71975;47.068;15.408;2024-02-23T17:29:46;95519.56;;;10.55;89.44
1694;BME280;71975;47.068;15.408;2024-02-23T17:34:49;95520.31;;;10.65;88.26
1694;BME280;71975;47.068;15.408;2024-02-23T17:39:54;95523.16;;;10.71;88.60
1694;BME280;71975;47.068;15.408;2024-02-23T17:44:58;95525.13;;;10.70;88.14
1694;BME280;71975;47.068;15.408;2024-02-23T17:50:01;95507.56;;;10.65;88.29
1694;BME280;71975;47.068;15.408;2024-02-23T17:55:05;95494.91;;;10.62;88.13
1694;BME280;71975;47.068;15.408;2024-02-23T18:00:11;95495.34;;;10.61;88.71
1694;BME280;71975;47.068;15.408;2024-02-23T18:05:15;95479.56;;;10.68;87.85
1694;BME280;71975;47.068;15.408;2024-02-23T18:10:18;95469.63;;;10.84;87.38
1694;BME280;71975;47.068;15.408;2024-02-23T18:15:24;95481.66;;;10.74;87.76
1694;BME280;71975;47.068;15.408;2024-02-23T18:20:26;95471.00;;;10.79;86.85
1694;BME280;71975;47.068;15.408;2024-02-23T18:25:29;95475.50;;;10.91;86.06
1694;BME280;71975;47.068;15.408;2024-02-23T18:30:34;95484.53;;;10.79;87.29
1694;BME280;71975;47.068;15.408;2024-02-23T18:35:37;95483.63;;;10.82;87.37
1694;BME280;71975;47.068;15.408;2024-02-23T18:40:40;95467.53;;;10.79;87.51
1694;BME280;71975;47.068;15.408;2024-02-23T18:45:44;95467.22;;;10.86;87.05
1694;BME280;71975;47.068;15.408;2024-02-23T18:50:47;95472.03;;;10.91;87.02
1694;BME280;71975;47.068;15.408;2024-02-23T18:55:50;95468.41;;;10.94;86.55
1694;BME280;71975;47.068;15.408;2024-02-23T19:00:55;95464.50;;;10.95;86.71
1694;BME280;71975;47.068;15.408;2024-02-23T19:06:00;95474.13;;;10.96;86.86
1694;BME280;71975;47.068;15.408;2024-02-23T19:11:03;95492.03;;;10.93;86.68
1694;BME280;71975;47.068;15.408;2024-02-23T19:16:12;95485.84;;;10.93;87.36
1694;BME280;71975;47.068;15.408;2024-02-23T19:21:16;95485.88;;;11.02;87.33
1694;BME280;71975;47.068;15.408;2024-02-23T19:26:19;95472.75;;;11.00;88.24
1694;BME280;71975;47.068;15.408;2024-02-23T19:31:24;95473.06;;;10.93;89.58
1694;BME280;71975;47.068;15.408;2024-02-23T19:36:28;95490.94;;;11.00;90.13
1694;BME280;71975;47.068;15.408;2024-02-23T19:41:31;95495.31;;;10.97;91.00
1694;BME280;71975;47.068;15.408;2024-02-23T19:46:39;95505.25;;;10.91;94.35
1694;BME280;71975;47.068;15.408;2024-02-23T19:51:42;95500.31;;;10.81;97.45
1694;BME280;71975;47.068;15.408;2024-02-23T19:56:45;95504.81;;;10.84;98.76
1694;BME280;71975;47.068;15.408;2024-02-23T20:01:49;95521.84;;;10.75;100.00
1694;BME280;71975;47.068;15.408;2024-02-23T20:06:52;95523.78;;;10.75;100.00
1694;BME280;71975;47.068;15.408;2024-02-23T20:11:57;95531.59;;;10.63;100.00
1694;BME280;71975;47.068;15.408;2024-02-23T20:17:01;95533.09;;;10.64;100.00
1694;BME280;71975;47.068;15.408;2024-02-23T20:22:04;95540.16;;;10.62;100.00
1694;BME280;71975;47.068;15.408;2024-02-23T20:27:08;95537.63;;;10.68;100.00
1694;BME280;71975;47.068;15.408;2024-02-23T20:32:12;95534.63;;;10.65;100.00
1694;BME280;71975;47.068;15.408;2024-02-23T20:37:27;95531.59;;;10.63;100.00
1694;BME280;71975;47.068;15.408;2024-02-23T20:42:30;95546.03;;;10.70;100.00
1694;BME280;71975;47.068;15.408;2024-02-23T20:47:34;95532.78;;;10.72;100.00
1694;BME280;71975;47.068;15.408;2024-02-23T20:52:37;95550.53;;;10.73;100.00
1694;BME280;71975;47.068;15.408;2024-02-23T20:57:40;95549.75;;;10.54;100.00
1694;BME280;71975;47.068;15.408;2024-02-23T21:02:45;95558.63;;;10.63;100.00
1694;BME280;71975;47.068;15.408;2024-02-23T21:07:49;95548.44;;;10.68;100.00
1694;BME280;71975;47.068;15.408;2024-02-23T21:12:52;95546.75;;;10.52;100.00
1694;BME280;71975;47.068;15.408;2024-02-23T21:17:56;95553.81;;;10.58;100.00
1694;BME280;71975;47.068;15.408;2024-02-23T21:22:59;95561.94;;;10.58;100.00
1694;BME280;71975;47.068;15.408;2024-02-23T21:28:03;95573.34;;;10.35;100.00
1694;BME280;71975;47.068;15.408;2024-02-23T21:33:07;95581.03;;;10.46;100.00
1694;BME280;71975;47.068;15.408;2024-02-23T21:38:10;95585.97;;;10.38;100.00
1694;BME280;71975;47.068;15.408;2024-02-23T21:43:14;95569.75;;;10.38;100.00
1694;BME280;71975;47.068;15.408;2024-02-23T21:48:18;95576.03;;;10.35;100.00
1694;BME280;71975;47.068;15.408;2024-02-23T21:53:21;95581.72;;;10.19;100.00
1694;BME280;71975;47.068;15.408;2024-02-23T21:58:24;95595.16;;;10.41;100.00
1694;BME280;71975;47.068;15.408;2024-02-23T22:03:28;95613.59;;;10.33;100.00
1694;BME280;71975;47.068;15.408;2024-02-23T22:08:33;95623.84;;;10.38;100.00
1694;BME280;71975;47.068;15.408;2024-02-23T22:13:36;95607.25;;;10.27;100.00
1694;BME280;71975;47.068;15.408;2024-02-23T22:18:40;95591.94;;;10.24;100.00
1694;BME280;71975;47.068;15.408;2024-02-23T22:23:44;95561.00;;;10.34;100.00
1694;BME280;71975;47.068;15.408;2024-02-23T22:28:46;95544.94;;;10.22;100.00
1694;BME280;71975;47.068;15.408;2024-02-23T22:33:51;95546.56;;;10.19;100.00
1694;BME280;71975;47.068;15.408;2024-02-23T22:38:54;95571.19;;;10.12;100.00
1694;BME280;71975;47.068;15.408;2024-02-23T22:43:57;95593.97;;;10.11;100.00
1694;BME280;71975;47.068;15.408;2024-02-23T22:49:01;95598.63;;;10.11;100.00
1694;BME280;71975;47.068;15.408;2024-02-23T22:54:04;95605.69;;;10.08;100.00
1694;BME280;71975;47.068;15.408;2024-02-23T22:59:07;95597.84;;;10.01;100.00
1694;BME280;71975;47.068;15.408;2024-02-23T23:04:12;95579.09;;;10.07;100.00
1694;BME280;71975;47.068;15.408;2024-02-23T23:09:16;95595.28;;;9.97;100.00
1694;BME280;71975;47.068;15.408;2024-02-23T23:14:19;95590.91;;;9.91;100.00
1694;BME280;71975;47.068;15.408;2024-02-23T23:19:24;95607.44;;;9.93;100.00
1694;BME280;71975;47.068;15.408;2024-02-23T23:24:27;95660.66;;;10.05;100.00
1694;BME280;71975;47.068;15.408;2024-02-23T23:29:30;95651.72;;;9.95;100.00
1694;BME280;71975;47.068;15.408;2024-02-23T23:34:34;95656.38;;;9.95;100.00
1694;BME280;71975;47.068;15.408;2024-02-23T23:39:37;95664.88;;;9.84;100.00
1694;BME280;71975;47.068;15.408;2024-02-23T23:44:40;95655.13;;;9.87;100.00
1694;BME280;71975;47.068;15.408;2024-02-23T23:49:44;95658.16;;;9.89;100.00
1694;BME280;71975;47.068;15.408;2024-02-23T23:54:47;95674.25;;;9.92;100.00
1694;BME280;71975;47.068;15.408;2024-02-23T23:59:50;95655.94;;;9.96;100.00
